Time;durP1;ratioP1;P1;durP2;ratioP2;P2;SDS_P1;SDS_P2;PMS_P1;PMS_P2;Temp;Humidity;BMP_temperature;BMP_pressure;BME280_temperature;BME280_humidity;BME280_pressure;Samples;Min_cycle;Max_cycle;Signal;HPM_P1;HPM_P2
2022/10/29 00:00:20;;;;;;;57.08;11.00;;;;;;;;;;4997332;28;20175;-69
2022/10/29 00:02:45;;;;;;;57.58;12.18;;;;;;;;;;4998125;28;20043;-71
2022/10/29 00:05:10;;;;;;;51.25;11.35;;;;;;;;;;4996139;28;20708;-71
2022/10/29 00:07:35;;;;;;;57.72;11.77;;;;;;;;;;4995422;28;21566;-72
2022/10/29 00:10:04;;;;;;;59.88;11.45;;;;;;;;;;4995956;28;20087;-71
2022/10/29 00:12:29;;;;;;;49.13;9.45;;;;;;;;;;4999663;28;20184;-72
2022/10/29 00:14:55;;;;;;;44.90;9.93;;;;;;;;;;4998243;28;20831;-73
2022/10/29 00:17:20;;;;;;;47.88;9.05;;;;;;;;;;4988716;28;20036;-71
2022/10/29 00:19:49;;;;;;;45.60;8.73;;;;;;;;;;4997534;28;20091;-73
2022/10/29 00:22:14;;;;;;;52.33;9.38;;;;;;;;;;4997752;28;20036;-72
2022/10/29 00:24:40;;;;;;;42.30;7.20;;;;;;;;;;4996657;28;22335;-72
2022/10/29 00:27:07;;;;;;;46.15;7.32;;;;;;;;;;4995382;28;20035;-72
2022/10/29 00:29:33;;;;;;;52.42;7.15;;;;;;;;;;5000798;28;21034;-73
2022/10/29 00:31:58;;;;;;;63.08;8.77;;;;;;;;;;4998325;28;20033;-72
2022/10/29 00:34:23;;;;;;;53.65;7.50;;;;;;;;;;4996229;28;20044;-71
2022/10/29 00:36:50;;;;;;;45.90;8.38;;;;;;;;;;4997721;28;20033;-71
2022/10/29 00:39:16;;;;;;;52.90;7.13;;;;;;;;;;4997371;28;20065;-72
2022/10/29 00:41:41;;;;;;;41.75;6.63;;;;;;;;;;5002135;28;21291;-73
2022/10/29 00:44:19;;;;;;;47.22;8.77;;;;;;;;;;4998477;28;20037;-72
2022/10/29 00:46:46;;;;;;;39.17;6.97;;;;;;;;;;4997478;28;20037;-72
2022/10/29 00:49:11;;;;;;;56.38;9.80;;;;;;;;;;4996781;28;20820;-70
2022/10/29 00:51:39;;;;;;;40.08;7.45;;;;;;;;;;4997057;28;20136;-72
2022/10/29 00:54:09;;;;;;;46.38;8.25;;;;;;;;;;4997695;28;20111;-71
2022/10/29 00:56:37;;;;;;;46.05;7.35;;;;;;;;;;4997079;28;20132;-71
2022/10/29 00:59:03;;;;;;;50.15;8.68;;;;;;;;;;4998040;28;20068;-74
2022/10/29 01:01:29;;;;;;;51.80;10.70;;;;;;;;;;4998216;28;20041;-71
2022/10/29 01:03:54;;;;;;;58.38;12.57;;;;;;;;;;5000439;28;20500;-72
2022/10/29 01:06:19;;;;;;;58.50;16.38;;;;;;;;;;5012368;28;20071;-72
2022/10/29 01:08:45;;;;;;;63.70;22.00;;;;;;;;;;4997278;28;20210;-72
2022/10/29 01:11:22;;;;;;;83.07;35.03;;;;;;;;;;4997910;28;20947;-72
2022/10/29 01:14:09;;;;;;;76.60;30.17;;;;;;;;;;4997264;28;20095;-72
2022/10/29 01:16:37;;;;;;;70.45;24.30;;;;;;;;;;4997259;28;20159;-71
2022/10/29 01:19:21;;;;;;;60.42;23.60;;;;;;;;;;4996939;28;20037;-71
2022/10/29 01:21:59;;;;;;;79.35;30.63;;;;;;;;;;4997175;28;20880;-72
2022/10/29 01:24:24;;;;;;;83.38;34.05;;;;;;;;;;5001084;28;20137;-72
2022/10/29 01:27:09;;;;;;;103.35;46.40;;;;;;;;;;5000502;28;20033;-73
2022/10/29 01:29:36;;;;;;;105.93;44.85;;;;;;;;;;5000945;28;20087;-73
2022/10/29 01:32:08;;;;;;;106.88;43.15;;;;;;;;;;5000855;28;20037;-73
2022/10/29 01:34:37;;;;;;;94.88;42.47;;;;;;;;;;4999623;28;20041;-72
2022/10/29 01:37:22;;;;;;;82.38;39.80;;;;;;;;;;5001353;28;20622;-73
2022/10/29 01:39:56;;;;;;;96.43;37.80;;;;;;;;;;4999622;28;20697;-73
2022/10/29 01:42:32;;;;;;;89.32;36.72;;;;;;;;;;5000052;28;20140;-72
2022/10/29 01:45:30;;;;;;;81.38;32.65;;;;;;;;;;5000664;28;20688;-73
2022/10/29 01:48:01;;;;;;;80.93;29.88;;;;;;;;;;4979841;28;22326;-72
2022/10/29 01:50:27;;;;;;;94.75;34.67;;;;;;;;;;5000904;28;20293;-71
2022/10/29 01:52:53;;;;;;;96.60;38.50;;;;;;;;;;5000052;28;20872;-72
2022/10/29 01:55:19;;;;;;;88.82;37.88;;;;;;;;;;4999200;28;20041;-73
2022/10/29 01:57:45;;;;;;;87.00;37.45;;;;;;;;;;5000222;28;20176;-74
2022/10/29 02:00:10;;;;;;;91.68;38.53;;;;;;;;;;4998761;28;20807;-71
2022/10/29 02:02:41;;;;;;;107.82;43.03;;;;;;;;;;5001579;28;20145;-72
2022/10/29 02:05:21;;;;;;;86.32;33.40;;;;;;;;;;5000616;28;20040;-71
2022/10/29 02:07:49;;;;;;;76.30;31.60;;;;;;;;;;4999880;28;20033;-72
2022/10/29 02:10:19;;;;;;;73.30;28.88;;;;;;;;;;5000185;28;20064;-73
2022/10/29 02:12:49;;;;;;;67.32;21.58;;;;;;;;;;5001007;28;20099;-70
2022/10/29 02:15:28;;;;;;;61.33;20.52;;;;;;;;;;5000420;28;20652;-70
2022/10/29 02:17:57;;;;;;;65.13;19.80;;;;;;;;;;4999764;28;20033;-69
2022/10/29 02:20:23;;;;;;;60.80;21.42;;;;;;;;;;4996622;28;20119;-70
2022/10/29 02:22:48;;;;;;;64.72;24.75;;;;;;;;;;4998854;28;20139;-70
2022/10/29 02:25:16;;;;;;;57.42;23.88;;;;;;;;;;4994591;28;20054;-70
2022/10/29 02:27:41;;;;;;;71.53;25.30;;;;;;;;;;5000527;28;20084;-70
2022/10/29 02:30:07;;;;;;;72.82;26.73;;;;;;;;;;4997904;28;20029;-70
2022/10/29 02:32:32;;;;;;;66.25;28.08;;;;;;;;;;4962440;28;20041;-70
2022/10/29 02:34:59;;;;;;;67.95;28.45;;;;;;;;;;4994006;28;20471;-70
2022/10/29 02:37:26;;;;;;;81.80;29.05;;;;;;;;;;4996978;28;20041;-70
2022/10/29 02:39:52;;;;;;;73.32;28.10;;;;;;;;;;4995941;28;20281;-68
2022/10/29 02:42:17;;;;;;;68.97;30.17;;;;;;;;;;4999424;28;20041;-70
2022/10/29 02:44:42;;;;;;;81.78;31.65;;;;;;;;;;4993983;28;20060;-70
2022/10/29 02:47:08;;;;;;;81.88;30.60;;;;;;;;;;4995146;28;20344;-68
2022/10/29 02:49:33;;;;;;;75.10;33.13;;;;;;;;;;4997539;28;20132;-71
2022/10/29 02:52:01;;;;;;;79.05;32.95;;;;;;;;;;4995552;28;20263;-68
2022/10/29 02:54:26;;;;;;;66.43;31.27;;;;;;;;;;4997057;28;20217;-70
2022/10/29 02:56:52;;;;;;;75.85;31.45;;;;;;;;;;4996163;28;20045;-68
2022/10/29 02:59:17;;;;;;;91.47;39.17;;;;;;;;;;4994722;28;20036;-68
2022/10/29 03:01:45;;;;;;;93.00;42.90;;;;;;;;;;4993214;28;20510;-68
2022/10/29 03:04:13;;;;;;;91.30;41.38;;;;;;;;;;4977143;28;20122;-68
2022/10/29 03:06:38;;;;;;;92.43;42.85;;;;;;;;;;5000507;28;20463;-69
2022/10/29 03:09:04;;;;;;;89.40;38.47;;;;;;;;;;4995202;28;20048;-69
2022/10/29 03:11:31;;;;;;;94.45;38.92;;;;;;;;;;4996033;28;20071;-70
2022/10/29 03:13:57;;;;;;;84.63;39.85;;;;;;;;;;4993694;28;20666;-70
2022/10/29 03:16:22;;;;;;;100.03;43.22;;;;;;;;;;4998919;28;20034;-70
2022/10/29 03:18:47;;;;;;;94.93;41.63;;;;;;;;;;4993114;28;20893;-70
2022/10/29 03:21:13;;;;;;;86.45;39.67;;;;;;;;;;4995317;28;20084;-70
2022/10/29 03:23:38;;;;;;;98.78;40.22;;;;;;;;;;4993275;28;20119;-70
2022/10/29 03:26:04;;;;;;;100.20;45.03;;;;;;;;;;4996333;28;20033;-70
2022/10/29 03:28:29;;;;;;;94.53;44.60;;;;;;;;;;4992666;28;20170;-70
2022/10/29 03:30:55;;;;;;;90.93;43.63;;;;;;;;;;4993738;28;20044;-70
2022/10/29 03:33:24;;;;;;;87.57;41.50;;;;;;;;;;4993266;28;20136;-70
2022/10/29 03:35:54;;;;;;;101.45;46.08;;;;;;;;;;4995241;28;20460;-70
2022/10/29 03:38:19;;;;;;;88.80;41.63;;;;;;;;;;4993609;28;20029;-70
2022/10/29 03:40:45;;;;;;;88.03;41.58;;;;;;;;;;4995809;28;20030;-70
2022/10/29 03:43:10;;;;;;;90.82;40.08;;;;;;;;;;4994288;28;20033;-70
2022/10/29 03:45:35;;;;;;;80.38;39.20;;;;;;;;;;4995842;28;21085;-70
2022/10/29 03:48:03;;;;;;;84.78;36.40;;;;;;;;;;4994271;28;20052;-70
2022/10/29 03:50:28;;;;;;;77.30;38.53;;;;;;;;;;4995418;28;20091;-70
2022/10/29 03:52:54;;;;;;;82.18;37.85;;;;;;;;;;4994517;28;20533;-70
2022/10/29 03:55:19;;;;;;;77.88;34.60;;;;;;;;;;4993358;28;20323;-70
2022/10/29 03:57:44;;;;;;;70.03;30.85;;;;;;;;;;4994686;28;20219;-70
2022/10/29 04:00:10;;;;;;;68.07;29.33;;;;;;;;;;4991393;28;20574;-70
2022/10/29 04:02:36;;;;;;;67.72;29.23;;;;;;;;;;4993552;28;22020;-70
2022/10/29 04:05:01;;;;;;;70.55;29.85;;;;;;;;;;4992654;28;20134;-70
2022/10/29 04:07:27;;;;;;;76.60;28.20;;;;;;;;;;4996206;28;20059;-68
2022/10/29 04:09:52;;;;;;;72.15;28.75;;;;;;;;;;4995345;28;20086;-69
2022/10/29 04:12:17;;;;;;;64.60;26.65;;;;;;;;;;4997467;28;20475;-69
2022/10/29 04:14:44;;;;;;;54.13;26.42;;;;;;;;;;4994199;28;20525;-69
2022/10/29 04:17:10;;;;;;;64.00;28.05;;;;;;;;;;4995780;28;20044;-69
2022/10/29 04:19:36;;;;;;;61.83;26.63;;;;;;;;;;4993983;28;20037;-69
2022/10/29 04:22:02;;;;;;;64.60;27.75;;;;;;;;;;4994339;28;20041;-71
2022/10/29 04:24:27;;;;;;;60.38;26.08;;;;;;;;;;4995423;28;20179;-71
2022/10/29 04:26:55;;;;;;;75.47;27.10;;;;;;;;;;4995016;28;20038;-70
2022/10/29 04:29:21;;;;;;;60.10;26.60;;;;;;;;;;4993422;28;20055;-70
2022/10/29 04:31:46;;;;;;;67.18;26.67;;;;;;;;;;4989660;28;20373;-70
2022/10/29 04:34:11;;;;;;;67.55;28.15;;;;;;;;;;4979231;28;20041;-71
2022/10/29 04:36:39;;;;;;;70.63;28.02;;;;;;;;;;4991688;28;20379;-69
2022/10/29 04:39:04;;;;;;;75.15;29.15;;;;;;;;;;4994517;28;22193;-69
2022/10/29 04:41:30;;;;;;;87.05;31.98;;;;;;;;;;4994682;28;20611;-69
2022/10/29 04:43:55;;;;;;;79.18;30.15;;;;;;;;;;4992678;28;20096;-69
2022/10/29 04:46:21;;;;;;;87.53;32.90;;;;;;;;;;4991057;28;20044;-69
2022/10/29 04:48:46;;;;;;;83.88;33.13;;;;;;;;;;4993543;28;20726;-71
2022/10/29 04:51:22;;;;;;;87.28;34.75;;;;;;;;;;4994573;28;20382;-69
2022/10/29 04:53:48;;;;;;;89.18;36.10;;;;;;;;;;4992904;28;20192;-69
2022/10/29 04:56:13;;;;;;;83.68;35.65;;;;;;;;;;4993541;28;20041;-69
2022/10/29 04:58:38;;;;;;;79.70;34.65;;;;;;;;;;4993600;28;20084;-69
2022/10/29 05:01:04;;;;;;;80.93;32.67;;;;;;;;;;4998840;28;20484;-69
2022/10/29 05:03:32;;;;;;;83.25;33.70;;;;;;;;;;4997685;28;20033;-68
2022/10/29 05:05:58;;;;;;;70.43;32.35;;;;;;;;;;4995693;28;20571;-67
2022/10/29 05:08:25;;;;;;;73.35;31.75;;;;;;;;;;4997748;28;20029;-69
2022/10/29 05:10:53;;;;;;;71.85;32.10;;;;;;;;;;5000390;28;20040;-69
2022/10/29 05:13:18;;;;;;;71.57;31.85;;;;;;;;;;5002327;28;20879;-70
2022/10/29 05:15:48;;;;;;;71.93;32.30;;;;;;;;;;5000554;28;20037;-69
2022/10/29 05:18:13;;;;;;;69.75;30.38;;;;;;;;;;5000856;28;20035;-69
2022/10/29 05:20:38;;;;;;;67.95;29.63;;;;;;;;;;4998209;28;20845;-69
2022/10/29 05:23:07;;;;;;;77.40;31.33;;;;;;;;;;5012305;28;20168;-69
2022/10/29 05:25:33;;;;;;;76.47;31.33;;;;;;;;;;4999280;28;20110;-69
2022/10/29 05:28:03;;;;;;;83.38;36.40;;;;;;;;;;4999661;28;20034;-69
2022/10/29 05:30:28;;;;;;;79.90;35.05;;;;;;;;;;4999477;28;20037;-69
2022/10/29 05:32:54;;;;;;;73.78;33.90;;;;;;;;;;5001471;28;20033;-69
2022/10/29 05:35:19;;;;;;;77.47;34.40;;;;;;;;;;4987536;28;20080;-69
2022/10/29 05:37:49;;;;;;;76.32;35.72;;;;;;;;;;5000044;28;20095;-69
2022/10/29 05:40:15;;;;;;;77.15;34.92;;;;;;;;;;4999281;28;20037;-70
2022/10/29 05:42:40;;;;;;;76.63;35.83;;;;;;;;;;5001616;28;20037;-70
2022/10/29 05:45:05;;;;;;;75.07;35.03;;;;;;;;;;5001654;28;20072;-69
2022/10/29 05:47:31;;;;;;;70.88;32.28;;;;;;;;;;5001039;28;20033;-69
2022/10/29 05:49:56;;;;;;;67.88;30.15;;;;;;;;;;4999849;28;20033;-69
2022/10/29 05:52:23;;;;;;;61.33;30.08;;;;;;;;;;4999686;28;20056;-69
2022/10/29 05:54:51;;;;;;;65.05;30.10;;;;;;;;;;4997390;28;20040;-69
2022/10/29 05:57:19;;;;;;;62.83;28.90;;;;;;;;;;4998643;28;20892;-69
2022/10/29 05:59:45;;;;;;;61.83;29.67;;;;;;;;;;5000427;28;20033;-70
2022/10/29 06:02:10;;;;;;;68.05;29.73;;;;;;;;;;4999162;28;20136;-69
2022/10/29 06:04:35;;;;;;;55.47;28.23;;;;;;;;;;4998714;28;20068;-69
2022/10/29 06:07:01;;;;;;;63.88;29.58;;;;;;;;;;4996286;28;20041;-70
2022/10/29 06:09:26;;;;;;;71.65;32.22;;;;;;;;;;4996364;28;20037;-69
2022/10/29 06:11:53;;;;;;;59.35;31.05;;;;;;;;;;4999571;28;20857;-69
2022/10/29 06:14:20;;;;;;;62.03;33.40;;;;;;;;;;4996258;28;20501;-69
2022/10/29 06:16:46;;;;;;;63.13;33.00;;;;;;;;;;4998485;28;20157;-69
2022/10/29 06:19:11;;;;;;;71.22;32.88;;;;;;;;;;4997745;28;20048;-69
2022/10/29 06:21:41;;;;;;;58.22;32.20;;;;;;;;;;5000496;28;20115;-69
2022/10/29 06:24:06;;;;;;;59.42;32.38;;;;;;;;;;4998132;28;20033;-69
2022/10/29 06:26:34;;;;;;;56.75;30.65;;;;;;;;;;4996885;28;20076;-69
2022/10/29 06:28:59;;;;;;;65.75;33.08;;;;;;;;;;4996803;28;20075;-68
2022/10/29 06:31:25;;;;;;;56.22;30.83;;;;;;;;;;5010899;28;20033;-67
2022/10/29 06:33:50;;;;;;;58.47;31.60;;;;;;;;;;4997578;28;20269;-67
2022/10/29 06:36:15;;;;;;;64.25;32.30;;;;;;;;;;4993928;28;20670;-68
2022/10/29 06:38:41;;;;;;;59.08;32.08;;;;;;;;;;4997061;28;20045;-67
2022/10/29 06:41:08;;;;;;;53.83;30.60;;;;;;;;;;4997053;28;20544;-68
2022/10/29 06:43:33;;;;;;;51.35;28.33;;;;;;;;;;4999062;28;25338;-68
2022/10/29 06:46:01;;;;;;;43.42;24.85;;;;;;;;;;4997950;28;20029;-68
2022/10/29 06:48:26;;;;;;;50.95;25.58;;;;;;;;;;4995404;28;20040;-68
2022/10/29 06:50:51;;;;;;;49.05;25.02;;;;;;;;;;4997537;28;20498;-69
2022/10/29 06:53:17;;;;;;;44.78;23.50;;;;;;;;;;5000749;28;20044;-69
2022/10/29 06:55:45;;;;;;;44.35;23.58;;;;;;;;;;5005820;28;20219;-67
2022/10/29 06:58:14;;;;;;;50.53;25.73;;;;;;;;;;4997479;28;20126;-69
2022/10/29 07:00:40;;;;;;;53.15;23.92;;;;;;;;;;4996236;28;20036;-69
2022/10/29 07:03:06;;;;;;;46.80;24.38;;;;;;;;;;4997033;28;20421;-69
2022/10/29 07:05:32;;;;;;;43.60;24.52;;;;;;;;;;4998768;28;20056;-67
2022/10/29 07:07:58;;;;;;;40.50;21.95;;;;;;;;;;4997450;28;20039;-67
2022/10/29 07:10:27;;;;;;;39.78;21.73;;;;;;;;;;4996335;28;20034;-68
2022/10/29 07:12:52;;;;;;;36.08;20.67;;;;;;;;;;4996482;28;20280;-69
2022/10/29 07:15:17;;;;;;;42.78;21.20;;;;;;;;;;4997240;28;20312;-70
2022/10/29 07:17:52;;;;;;;41.30;20.70;;;;;;;;;;4996162;28;20905;-68
2022/10/29 07:20:18;;;;;;;42.00;20.42;;;;;;;;;;4995735;28;20033;-68
2022/10/29 07:22:46;;;;;;;35.28;19.90;;;;;;;;;;4998166;28;20261;-68
2022/10/29 07:25:12;;;;;;;33.22;18.00;;;;;;;;;;4996252;28;20155;-68
2022/10/29 07:27:37;;;;;;;35.22;19.30;;;;;;;;;;4998449;28;20138;-68
2022/10/29 07:30:07;;;;;;;34.20;18.70;;;;;;;;;;4996901;28;20041;-69
2022/10/29 07:32:32;;;;;;;36.35;19.38;;;;;;;;;;4998878;28;20897;-68
2022/10/29 07:34:58;;;;;;;35.22;20.17;;;;;;;;;;4993088;28;20132;-68
2022/10/29 07:37:23;;;;;;;33.60;17.58;;;;;;;;;;4993964;28;20142;-69
2022/10/29 07:39:48;;;;;;;36.78;19.90;;;;;;;;;;4996389;28;20029;-68
2022/10/29 07:42:13;;;;;;;31.70;18.05;;;;;;;;;;4993961;28;20144;-68
2022/10/29 07:44:39;;;;;;;32.00;20.08;;;;;;;;;;4995799;28;20045;-68
2022/10/29 07:47:04;;;;;;;37.00;19.98;;;;;;;;;;4998305;28;20130;-69
2022/10/29 07:49:31;;;;;;;38.30;19.52;;;;;;;;;;4993282;28;20055;-68
2022/10/29 07:51:57;;;;;;;36.05;20.83;;;;;;;;;;4993399;28;20064;-69
2022/10/29 07:54:22;;;;;;;42.70;22.42;;;;;;;;;;4996350;28;20052;-68
2022/10/29 07:56:50;;;;;;;35.42;20.80;;;;;;;;;;4994259;28;20056;-71
2022/10/29 07:59:16;;;;;;;32.42;20.90;;;;;;;;;;4994055;28;20480;-67
2022/10/29 08:01:41;;;;;;;40.85;22.38;;;;;;;;;;4977197;28;21641;-67
2022/10/29 08:04:07;;;;;;;42.78;21.52;;;;;;;;;;4993257;28;20444;-68
2022/10/29 08:06:32;;;;;;;38.83;22.42;;;;;;;;;;4996040;28;20044;-69
2022/10/29 08:08:57;;;;;;;41.40;22.55;;;;;;;;;;4991962;28;20513;-69
2022/10/29 08:11:23;;;;;;;34.22;21.38;;;;;;;;;;4998944;28;20583;-69
2022/10/29 08:13:48;;;;;;;40.45;22.33;;;;;;;;;;4997065;28;20409;-69
2022/10/29 08:16:13;;;;;;;38.25;21.88;;;;;;;;;;4994788;28;20082;-69
2022/10/29 08:18:39;;;;;;;32.33;21.15;;;;;;;;;;4994585;28;20079;-70
2022/10/29 08:21:04;;;;;;;39.38;20.92;;;;;;;;;;4996334;28;20690;-70
2022/10/29 08:23:29;;;;;;;33.78;21.30;;;;;;;;;;4994953;28;20041;-68
2022/10/29 08:25:56;;;;;;;34.75;19.70;;;;;;;;;;4993014;28;20104;-68
2022/10/29 08:28:21;;;;;;;33.78;19.98;;;;;;;;;;4994945;28;20714;-70
2022/10/29 08:30:52;;;;;;;32.50;19.52;;;;;;;;;;4994666;28;20271;-69
2022/10/29 08:33:19;;;;;;;35.95;18.77;;;;;;;;;;4996270;28;20028;-70
2022/10/29 08:35:45;;;;;;;31.20;17.55;;;;;;;;;;4996411;28;20163;-68
2022/10/29 08:38:10;;;;;;;30.17;17.67;;;;;;;;;;4998438;28;20447;-68
2022/10/29 08:40:45;;;;;;;28.20;15.85;;;;;;;;;;4997039;28;20649;-68
2022/10/29 08:43:16;;;;;;;28.50;15.38;;;;;;;;;;4999041;28;20033;-69
2022/10/29 08:45:42;;;;;;;;;;;;;;;;;;4999656;28;20037;-69
2022/10/29 08:48:07;;;;;;;26.65;15.30;;;;;;;;;;4998783;28;19917;-68
2022/10/29 08:50:39;;;;;;;25.20;15.25;;;;;;;;;;4999386;28;20747;-68
2022/10/29 08:53:08;;;;;;;28.83;15.70;;;;;;;;;;4998661;28;20033;-68
2022/10/29 08:55:35;;;;;;;25.92;14.40;;;;;;;;;;4997426;28;20470;-68
2022/10/29 08:58:07;;;;;;;28.10;15.07;;;;;;;;;;4998972;28;20433;-68
2022/10/29 09:00:37;;;;;;;26.63;14.50;;;;;;;;;;4980692;28;20038;-69
2022/10/29 09:03:08;;;;;;;27.15;14.70;;;;;;;;;;4997291;28;20099;-68
2022/10/29 09:05:53;;;;;;;24.52;13.50;;;;;;;;;;4998799;28;21159;-70
2022/10/29 09:08:28;;;;;;;28.75;13.98;;;;;;;;;;4999019;28;20209;-70
2022/10/29 09:10:54;;;;;;;24.77;13.43;;;;;;;;;;4997706;28;20285;-68
2022/10/29 09:13:20;;;;;;;25.50;14.45;;;;;;;;;;4998095;28;20152;-69
2022/10/29 09:15:57;;;;;;;27.20;15.05;;;;;;;;;;5000954;28;20876;-68
2022/10/29 09:18:41;;;;;;;23.85;14.98;;;;;;;;;;4999686;28;20110;-72
2022/10/29 09:21:18;;;;;;;29.83;15.55;;;;;;;;;;4998588;28;20879;-70
2022/10/29 09:23:44;;;;;;;31.85;16.05;;;;;;;;;;5001595;28;20889;-69
2022/10/29 09:26:13;;;;;;;28.75;14.60;;;;;;;;;;5000021;28;20105;-68
2022/10/29 09:28:41;;;;;;;27.67;15.73;;;;;;;;;;4999805;28;20040;-68
2022/10/29 09:31:08;;;;;;;27.13;15.82;;;;;;;;;;4998149;28;20037;-68
2022/10/29 09:33:34;;;;;;;28.73;16.75;;;;;;;;;;4998883;28;20218;-68
2022/10/29 09:36:00;;;;;;;29.83;16.02;;;;;;;;;;4997809;28;20029;-68
2022/10/29 09:38:25;;;;;;;26.33;15.35;;;;;;;;;;4999752;28;20071;-68
2022/10/29 09:40:50;;;;;;;34.00;21.75;;;;;;;;;;4998789;28;20041;-69
2022/10/29 09:43:34;;;;;;;29.10;15.98;;;;;;;;;;4998081;28;20140;-69
2022/10/29 09:46:05;;;;;;;27.92;16.63;;;;;;;;;;5000356;28;20826;-70
2022/10/29 09:48:33;;;;;;;32.60;18.23;;;;;;;;;;5001799;28;22307;-68
2022/10/29 09:51:10;;;;;;;33.45;16.95;;;;;;;;;;5000084;28;20496;-69
2022/10/29 09:53:35;;;;;;;49.20;24.58;;;;;;;;;;5003092;28;20037;-69
2022/10/29 09:56:00;;;;;;;34.40;18.35;;;;;;;;;;5001366;28;20114;-68
2022/10/29 09:58:29;;;;;;;34.38;18.40;;;;;;;;;;5003093;28;20663;-68
2022/10/29 10:00:56;;;;;;;26.25;15.63;;;;;;;;;;4999694;28;20063;-69
2022/10/29 10:03:27;;;;;;;27.17;14.93;;;;;;;;;;4998669;28;20867;-69
2022/10/29 10:06:02;;;;;;;28.85;15.95;;;;;;;;;;5000100;28;20030;-69
2022/10/29 10:08:28;;;;;;;32.45;17.73;;;;;;;;;;4999210;28;20037;-69
2022/10/29 10:11:06;;;;;;;28.58;16.05;;;;;;;;;;4998613;28;22121;-69
2022/10/29 10:13:49;;;;;;;31.27;17.50;;;;;;;;;;4999584;28;20035;-69
2022/10/29 10:16:22;;;;;;;27.02;15.50;;;;;;;;;;5000943;28;20847;-68
2022/10/29 10:18:47;;;;;;;;;;;;;;;;;;5001333;28;20025;-70
2022/10/29 10:21:23;;;;;;;27.63;14.70;;;;;;;;;;4996490;28;20328;-68
2022/10/29 10:23:52;;;;;;;26.35;14.27;;;;;;;;;;4994865;28;20924;-69
2022/10/29 10:26:46;;;;;;;28.40;16.33;;;;;;;;;;4994203;28;20664;-68
2022/10/29 10:29:16;;;;;;;27.42;15.65;;;;;;;;;;4996081;28;20044;-69
2022/10/29 10:32:01;;;;;;;26.73;15.10;;;;;;;;;;4994332;28;20680;-68
2022/10/29 10:34:32;;;;;;;151.52;129.50;;;;;;;;;;4996174;28;20135;-69
2022/10/29 10:37:03;;;;;;;25.60;12.45;;;;;;;;;;4997157;28;22446;-70
2022/10/29 10:39:30;;;;;;;20.58;12.07;;;;;;;;;;4999816;28;20065;-68
2022/10/29 10:41:59;;;;;;;26.52;14.80;;;;;;;;;;4997622;28;22471;-70
2022/10/29 10:44:25;;;;;;;26.73;16.13;;;;;;;;;;4998649;28;20144;-70
2022/10/29 10:46:53;;;;;;;28.45;16.45;;;;;;;;;;4997966;28;20052;-68
2022/10/29 10:49:21;;;;;;;23.33;14.05;;;;;;;;;;4999395;28;20797;-69
2022/10/29 10:51:51;;;;;;;26.80;13.57;;;;;;;;;;5000114;28;20037;-69
2022/10/29 10:54:36;;;;;;;32.08;15.40;;;;;;;;;;5000231;28;20049;-69
2022/10/29 10:57:17;;;;;;;28.20;14.20;;;;;;;;;;4995831;28;20033;-69
2022/10/29 11:00:03;;;;;;;27.73;12.80;;;;;;;;;;4999880;28;20041;-69
2022/10/29 11:02:34;;;;;;;27.42;13.15;;;;;;;;;;4998290;28;20132;-67
2022/10/29 11:05:02;;;;;;;29.02;14.10;;;;;;;;;;4997447;28;20061;-68
2022/10/29 11:07:30;;;;;;;21.63;13.38;;;;;;;;;;4995429;28;20088;-68
2022/10/29 11:10:01;;;;;;;23.42;12.05;;;;;;;;;;4994395;28;20046;-70
2022/10/29 11:12:38;;;;;;;23.52;12.75;;;;;;;;;;4994112;28;20113;-68
2022/10/29 11:15:08;;;;;;;23.08;11.68;;;;;;;;;;4995457;28;20049;-69
2022/10/29 11:17:33;;;;;;;22.42;12.45;;;;;;;;;;5000157;28;20033;-69
2022/10/29 11:20:19;;;;;;;25.83;11.82;;;;;;;;;;4994915;28;20037;-69
2022/10/29 11:23:03;;;;;;;20.88;11.27;;;;;;;;;;4999047;28;20067;-67
2022/10/29 11:26:06;;;;;;;22.88;12.13;;;;;;;;;;4996613;28;20772;-69
2022/10/29 11:28:32;;;;;;;21.95;10.65;;;;;;;;;;4962010;28;20041;-67
2022/10/29 11:31:01;;;;;;;22.15;10.35;;;;;;;;;;4991055;28;20025;-71
2022/10/29 11:33:49;;;;;;;19.52;9.30;;;;;;;;;;4996648;28;20306;-69
2022/10/29 11:36:24;;;;;;;23.08;10.98;;;;;;;;;;4997141;28;20121;-69
2022/10/29 11:38:52;;;;;;;20.42;10.18;;;;;;;;;;4996379;28;20466;-70
2022/10/29 11:41:43;;;;;;;22.20;9.68;;;;;;;;;;4995489;28;20292;-68
2022/10/29 11:44:12;;;;;;;23.08;9.82;;;;;;;;;;4988178;28;20577;-70
2022/10/29 11:46:52;;;;;;;22.45;9.57;;;;;;;;;;4994974;28;20292;-69
2022/10/29 11:49:29;;;;;;;20.08;9.10;;;;;;;;;;4995665;28;20075;-69
2022/10/29 11:51:58;;;;;;;20.45;9.02;;;;;;;;;;4995107;28;20548;-68
2022/10/29 11:54:29;;;;;;;22.20;9.43;;;;;;;;;;4995728;28;21127;-69
2022/10/29 11:57:01;;;;;;;27.23;10.32;;;;;;;;;;4995842;28;20299;-68
2022/10/29 11:59:36;;;;;;;16.92;9.13;;;;;;;;;;4994806;28;20398;-68
2022/10/29 12:02:20;;;;;;;16.50;9.20;;;;;;;;;;4996458;28;20124;-68
2022/10/29 12:04:52;;;;;;;22.45;8.95;;;;;;;;;;4995558;28;20037;-68
2022/10/29 12:07:36;;;;;;;21.33;9.02;;;;;;;;;;4994777;28;20469;-67
2022/10/29 12:10:12;;;;;;;24.20;10.77;;;;;;;;;;4992435;28;20037;-67
2022/10/29 12:12:43;;;;;;;26.55;12.98;;;;;;;;;;4997357;28;20049;-65
2022/10/29 12:15:20;;;;;;;23.25;11.48;;;;;;;;;;4995042;28;20162;-67
2022/10/29 12:17:51;;;;;;;26.40;10.80;;;;;;;;;;4994946;28;20974;-67
2022/10/29 12:20:23;;;;;;;24.85;11.95;;;;;;;;;;4994936;28;20829;-69
2022/10/29 12:23:13;;;;;;;26.67;10.18;;;;;;;;;;4992204;28;20390;-68
2022/10/29 12:25:39;;;;;;;20.50;9.38;;;;;;;;;;4995794;28;20041;-68
2022/10/29 12:28:21;;;;;;;21.98;8.50;;;;;;;;;;4992691;28;20041;-69
2022/10/29 12:30:55;;;;;;;21.25;8.55;;;;;;;;;;4993506;28;20041;-69
2022/10/29 12:33:26;;;;;;;21.42;8.82;;;;;;;;;;4992878;28;20090;-68
2022/10/29 12:35:58;;;;;;;26.60;10.32;;;;;;;;;;4992860;28;20074;-67
2022/10/29 12:38:38;;;;;;;22.48;9.15;;;;;;;;;;4992921;28;20732;-68
2022/10/29 12:41:14;;;;;;;21.52;8.63;;;;;;;;;;4993044;28;20063;-68
2022/10/29 12:43:39;;;;;;;22.40;9.00;;;;;;;;;;4992902;28;20060;-68
2022/10/29 12:46:15;;;;;;;20.88;10.27;;;;;;;;;;4989799;28;20025;-68
2022/10/29 12:48:49;;;;;;;18.20;8.88;;;;;;;;;;4993068;28;20041;-67
2022/10/29 12:51:19;;;;;;;22.38;9.02;;;;;;;;;;5007579;28;20037;-67
2022/10/29 12:54:03;;;;;;;24.25;9.18;;;;;;;;;;4992212;28;20120;-68
2022/10/29 12:56:32;;;;;;;28.05;9.73;;;;;;;;;;4990647;28;20041;-68
2022/10/29 12:59:17;;;;;;;26.40;9.27;;;;;;;;;;4993589;28;20026;-69
2022/10/29 13:01:43;;;;;;;23.45;9.93;;;;;;;;;;4992335;28;20446;-69
2022/10/29 13:04:20;;;;;;;22.13;9.43;;;;;;;;;;4979873;28;20067;-68
2022/10/29 13:06:55;;;;;;;20.95;8.70;;;;;;;;;;4994410;28;20041;-68
2022/10/29 13:09:22;;;;;;;22.10;8.80;;;;;;;;;;4993448;28;20874;-68
2022/10/29 13:11:52;;;;;;;17.30;8.43;;;;;;;;;;4991890;28;20036;-68
2022/10/29 13:14:19;;;;;;;22.80;7.88;;;;;;;;;;4992662;28;20104;-69
2022/10/29 13:16:50;;;;;;;23.50;7.80;;;;;;;;;;4990471;28;20175;-68
2022/10/29 13:19:42;;;;;;;23.50;8.52;;;;;;;;;;4994044;28;20064;-69
2022/10/29 13:22:14;;;;;;;23.83;8.52;;;;;;;;;;4996897;28;20279;-68
2022/10/29 13:24:39;;;;;;;20.17;8.68;;;;;;;;;;4996464;28;20233;-68
2022/10/29 13:27:14;;;;;;;18.70;7.82;;;;;;;;;;4997250;28;20314;-68
2022/10/29 13:29:50;;;;;;;15.13;7.28;;;;;;;;;;4996666;28;20551;-68
2022/10/29 13:32:29;;;;;;;23.67;8.23;;;;;;;;;;4997660;28;20041;-67
2022/10/29 13:34:59;;;;;;;19.10;7.95;;;;;;;;;;4996660;28;20257;-68
2022/10/29 13:37:37;;;;;;;18.88;7.93;;;;;;;;;;4998137;28;20041;-68
2022/10/29 13:40:21;;;;;;;17.38;7.57;;;;;;;;;;4998110;28;20029;-67
2022/10/29 13:42:52;;;;;;;18.42;8.02;;;;;;;;;;4997119;28;20572;-67
2022/10/29 13:45:18;;;;;;;21.60;8.05;;;;;;;;;;4996886;28;20477;-67
2022/10/29 13:47:44;;;;;;;21.95;8.02;;;;;;;;;;5001045;28;20588;-67
2022/10/29 13:50:10;;;;;;;21.80;8.45;;;;;;;;;;4997612;28;20041;-67
2022/10/29 13:52:36;;;;;;;28.55;9.30;;;;;;;;;;4995642;28;20483;-67
2022/10/29 13:55:05;;;;;;;25.80;8.57;;;;;;;;;;4999078;28;20125;-67
2022/10/29 13:57:50;;;;;;;20.60;7.78;;;;;;;;;;4997537;28;20506;-67
2022/10/29 14:00:16;;;;;;;23.65;9.23;;;;;;;;;;4998218;28;20044;-68
2022/10/29 14:02:48;;;;;;;25.50;9.20;;;;;;;;;;4998429;28;20041;-70
2022/10/29 14:05:21;;;;;;;26.98;8.95;;;;;;;;;;4995999;28;20071;-69
2022/10/29 14:08:05;;;;;;;23.35;8.30;;;;;;;;;;4997653;28;20034;-69
2022/10/29 14:10:39;;;;;;;24.38;8.70;;;;;;;;;;4997995;28;20951;-67
2022/10/29 14:13:23;;;;;;;20.60;9.15;;;;;;;;;;4997659;28;20167;-69
2022/10/29 14:16:01;;;;;;;24.58;9.38;;;;;;;;;;4994768;28;20041;-70
2022/10/29 14:18:27;;;;;;;24.38;9.95;;;;;;;;;;4996548;28;20787;-69
2022/10/29 14:20:53;;;;;;;25.23;9.80;;;;;;;;;;5010272;28;20064;-70
2022/10/29 14:23:19;;;;;;;26.13;10.68;;;;;;;;;;4993581;28;20565;-70
2022/10/29 14:25:49;;;;;;;27.75;9.68;;;;;;;;;;4995780;28;20524;-70
2022/10/29 14:28:16;;;;;;;25.13;10.10;;;;;;;;;;4985625;28;20052;-69
2022/10/29 14:30:42;;;;;;;27.08;10.98;;;;;;;;;;4996834;28;20037;-70
2022/10/29 14:33:24;;;;;;;20.90;10.32;;;;;;;;;;5010491;28;20123;-69